createdAt,value
2022-07-29T00:04:38.858Z,18.51
2022-07-29T00:09:43.081Z,18.45
2022-07-29T00:14:55.408Z,18.43
2022-07-29T00:19:56.862Z,18.38
2022-07-29T00:24:58.382Z,18.35
2022-07-29T00:29:59.843Z,18.32
2022-07-29T00:35:20.247Z,18.28
2022-07-29T00:40:23.571Z,18.27
2022-07-29T00:45:25.260Z,18.20
2022-07-29T00:50:27.431Z,18.13
2022-07-29T00:55:29.963Z,18.06
2022-07-29T01:00:31.782Z,18.06
2022-07-29T01:05:49.952Z,17.98
2022-07-29T01:10:54.122Z,17.93
2022-07-29T01:16:04.369Z,17.89
2022-07-29T01:21:24.281Z,17.84
2022-07-29T01:27:13.122Z,17.81
2022-07-29T01:32:33.942Z,17.70
2022-07-29T01:38:04.691Z,17.64
2022-07-29T01:43:15.464Z,17.60
2022-07-29T01:48:28.835Z,17.53
2022-07-29T01:53:38.010Z,17.47
2022-07-29T01:58:42.449Z,17.45
2022-07-29T02:03:46.995Z,17.42
2022-07-29T02:08:49.961Z,17.33
2022-07-29T02:13:55.730Z,17.30
2022-07-29T02:19:00.068Z,17.26
2022-07-29T02:24:03.576Z,17.21
2022-07-29T02:29:05.945Z,17.13
2022-07-29T02:34:09.312Z,17.09
2022-07-29T02:39:13.021Z,16.99
2022-07-29T02:44:17.701Z,17.01
2022-07-29T02:49:34.989Z,16.98
2022-07-29T02:54:43.256Z,16.92
2022-07-29T02:59:48.704Z,16.85
2022-07-29T03:04:51.303Z,16.85
2022-07-29T03:09:53.572Z,16.83
2022-07-29T03:14:55.560Z,16.76
2022-07-29T03:19:57.272Z,16.70
2022-07-29T03:24:58.718Z,16.71
2022-07-29T03:30:00.210Z,16.74
2022-07-29T03:35:01.857Z,16.66
2022-07-29T03:40:08.087Z,16.66
2022-07-29T03:45:13.277Z,16.70
2022-07-29T03:50:16.086Z,16.76
2022-07-29T03:55:17.891Z,16.78
2022-07-29T04:00:20.396Z,16.78
2022-07-29T04:05:22.213Z,16.91
2022-07-29T04:10:31.392Z,17.00
2022-07-29T04:15:33.758Z,17.12
2022-07-29T04:20:35.385Z,17.21
2022-07-29T04:25:41.136Z,17.23
2022-07-29T04:30:43.822Z,17.30
2022-07-29T04:35:49.944Z,17.44
2022-07-29T04:40:53.728Z,17.68
2022-07-29T04:45:56.172Z,17.85
2022-07-29T04:50:57.685Z,18.16
2022-07-29T04:56:00.079Z,18.36
2022-07-29T05:01:01.689Z,18.68
2022-07-29T05:06:03.296Z,18.86
2022-07-29T05:11:11.752Z,19.03
2022-07-29T05:16:15.171Z,19.30
2022-07-29T05:21:16.761Z,19.37
2022-07-29T05:26:18.228Z,19.43
2022-07-29T05:31:19.819Z,19.35
2022-07-29T05:36:21.337Z,19.33
2022-07-29T05:41:22.828Z,19.37
2022-07-29T05:46:24.356Z,19.50
2022-07-29T05:51:25.919Z,19.54
2022-07-29T05:56:27.695Z,19.51
2022-07-29T06:01:29.190Z,19.70
2022-07-29T06:06:30.698Z,19.78
2022-07-29T06:11:32.187Z,19.93
2022-07-29T06:16:33.737Z,20.21
2022-07-29T06:21:35.265Z,20.72
2022-07-29T06:26:40.992Z,20.97
2022-07-29T06:31:42.526Z,21.19
2022-07-29T06:36:43.987Z,21.34
2022-07-29T06:41:51.518Z,21.35
2022-07-29T06:46:54.009Z,21.47
2022-07-29T06:51:56.195Z,21.81
2022-07-29T06:56:57.640Z,22.11
2022-07-29T07:01:59.105Z,22.18
2022-07-29T07:07:00.707Z,22.25
2022-07-29T07:12:02.609Z,22.11
2022-07-29T07:17:04.958Z,22.42
2022-07-29T07:22:06.606Z,22.90
2022-07-29T07:27:08.095Z,23.13
2022-07-29T07:32:09.721Z,23.26
2022-07-29T07:37:11.340Z,23.33
2022-07-29T07:42:13.892Z,23.39
2022-07-29T07:47:20.625Z,23.56
2022-07-29T07:52:23.587Z,23.73
2022-07-29T07:57:25.030Z,23.58
2022-07-29T08:02:26.596Z,23.42
2022-07-29T08:07:28.201Z,23.42
2022-07-29T08:12:29.709Z,23.52
2022-07-29T08:17:31.228Z,23.64
2022-07-29T08:22:36.901Z,23.84
2022-07-29T08:27:43.778Z,23.88
2022-07-29T08:32:54.457Z,24.12
2022-07-29T08:37:57.761Z,24.40
2022-07-29T08:43:00.792Z,24.64
2022-07-29T08:48:02.376Z,24.55
2022-07-29T08:53:04.278Z,24.71
2022-07-29T08:58:06.501Z,24.83
2022-07-29T09:03:11.955Z,25.06
2022-07-29T09:08:17.108Z,25.35
2022-07-29T09:13:18.929Z,25.98
2022-07-29T09:18:34.342Z,26.11
2022-07-29T09:23:35.974Z,26.36
2022-07-29T09:28:42.964Z,26.28
2022-07-29T09:33:44.509Z,26.25
2022-07-29T09:38:58.896Z,26.03
2022-07-29T09:44:01.022Z,26.03
2022-07-29T09:49:13.926Z,25.69
2022-07-29T09:54:28.619Z,25.70
2022-07-29T09:59:30.162Z,25.64
2022-07-29T10:04:43.009Z,25.62
2022-07-29T10:09:58.202Z,25.77
2022-07-29T10:15:02.558Z,25.88
2022-07-29T10:20:06.020Z,26.11
2022-07-29T10:25:08.507Z,26.11
2022-07-29T10:30:10.954Z,26.02
2022-07-29T10:35:30.834Z,26.21
2022-07-29T10:40:58.512Z,26.33
2022-07-29T10:46:01.505Z,26.59
2022-07-29T10:51:06.979Z,26.82
2022-07-29T10:56:36.130Z,26.77
2022-07-29T11:01:39.217Z,26.72
2022-07-29T11:06:59.678Z,26.85
2022-07-29T11:12:37.006Z,26.62
2022-07-29T11:17:53.662Z,26.78
2022-07-29T11:22:55.176Z,26.91
2022-07-29T11:28:11.753Z,26.91
2022-07-29T11:33:54.394Z,26.85
2022-07-29T11:39:26.465Z,26.81
2022-07-29T11:45:08.445Z,26.69
2022-07-29T11:50:33.460Z,26.82
2022-07-29T11:55:38.440Z,27.08
2022-07-29T12:00:55.688Z,26.94
2022-07-29T12:05:57.660Z,26.89
2022-07-29T12:10:59.505Z,27.03
2022-07-29T12:16:01.558Z,27.07
2022-07-29T12:21:07.689Z,27.31
2022-07-29T12:26:10.587Z,27.07
2022-07-29T12:31:42.261Z,27.14
2022-07-29T12:36:37.219Z,27.07
2022-07-29T12:41:39.919Z,27.24
2022-07-29T12:46:41.599Z,27.08
2022-07-29T12:51:43.399Z,27.16
2022-07-29T12:56:46.098Z,27.11
2022-07-29T13:01:50.224Z,27.20
2022-07-29T13:07:09.207Z,27.52
2022-07-29T13:12:14.569Z,27.71
2022-07-29T13:17:32.754Z,27.75
2022-07-29T13:22:34.440Z,27.54
2022-07-29T13:27:38.423Z,27.61
2022-07-29T13:32:39.930Z,27.75
2022-07-29T13:37:42.052Z,27.91
2022-07-29T13:42:43.580Z,27.77
2022-07-29T13:47:49.485Z,27.71
2022-07-29T13:52:51.951Z,27.76
2022-07-29T13:57:53.416Z,27.71
2022-07-29T14:02:54.981Z,27.57
2022-07-29T14:07:56.455Z,27.46
2022-07-29T14:12:57.905Z,27.51
2022-07-29T14:17:59.398Z,27.50
2022-07-29T14:23:00.989Z,27.53
2022-07-29T14:28:02.612Z,27.55
2022-07-29T14:33:04.124Z,27.54
2022-07-29T14:38:05.621Z,27.74
2022-07-29T14:43:07.212Z,27.74
2022-07-29T14:48:08.689Z,27.64
2022-07-29T14:53:10.370Z,27.51
2022-07-29T14:58:16.271Z,27.68
2022-07-29T15:03:23.841Z,27.52
2022-07-29T15:08:26.299Z,27.54
2022-07-29T15:13:27.765Z,27.30
2022-07-29T15:18:29.285Z,27.14
2022-07-29T15:23:30.753Z,26.99
2022-07-29T15:28:32.340Z,27.00
2022-07-29T15:33:33.858Z,27.11
2022-07-29T15:38:35.331Z,27.23
2022-07-29T15:43:47.696Z,27.16
2022-07-29T15:48:49.165Z,26.99
2022-07-29T15:53:53.366Z,26.78
2022-07-29T15:58:55.336Z,26.71
2022-07-29T16:03:58.176Z,26.60
2022-07-29T16:09:00.530Z,26.59
2022-07-29T16:14:02.325Z,26.55
2022-07-29T16:19:04.573Z,26.55
2022-07-29T16:24:07.123Z,26.40
2022-07-29T16:29:08.652Z,26.50
2022-07-29T16:34:10.109Z,26.46
2022-07-29T16:39:12.718Z,26.28
2022-07-29T16:44:14.475Z,26.35
2022-07-29T16:49:19.521Z,26.25
2022-07-29T16:54:21.180Z,26.23
2022-07-29T16:59:22.847Z,26.11
2022-07-29T17:04:24.289Z,26.08
2022-07-29T17:09:25.847Z,25.95
2022-07-29T17:14:29.428Z,25.83
2022-07-29T17:19:35.355Z,25.67
2022-07-29T17:24:37.268Z,25.45
2022-07-29T17:29:40.221Z,25.40
2022-07-29T17:34:42.818Z,25.26
2022-07-29T17:39:44.637Z,25.13
2022-07-29T17:44:46.103Z,25.06
2022-07-29T17:49:47.873Z,25.04
2022-07-29T17:54:49.331Z,24.98
2022-07-29T17:59:50.883Z,24.89
2022-07-29T18:04:52.339Z,24.78
2022-07-29T18:09:57.418Z,24.56
2022-07-29T18:15:01.620Z,24.43
2022-07-29T18:20:04.152Z,24.46
2022-07-29T18:25:07.302Z,24.49
2022-07-29T18:30:09.448Z,24.41
2022-07-29T18:35:11.102Z,24.37
2022-07-29T18:40:12.803Z,24.38
2022-07-29T18:45:19.467Z,24.36
2022-07-29T18:50:25.716Z,24.30
2022-07-29T18:55:30.332Z,24.21
2022-07-29T19:00:32.153Z,24.15
2022-07-29T19:05:33.908Z,24.12
2022-07-29T19:10:35.417Z,24.05
2022-07-29T19:15:36.875Z,24.01
2022-07-29T19:20:39.101Z,23.93
2022-07-29T19:25:53.185Z,23.82
2022-07-29T19:30:55.432Z,23.79
2022-07-29T19:35:56.957Z,23.75
2022-07-29T19:40:58.942Z,23.73
2022-07-29T19:46:00.475Z,23.71
2022-07-29T19:51:01.948Z,23.61
2022-07-29T19:56:03.752Z,23.52
2022-07-29T20:01:10.794Z,23.43
2022-07-29T20:06:12.908Z,23.37
2022-07-29T20:11:14.381Z,23.27
2022-07-29T20:16:16.673Z,23.18
2022-07-29T20:21:18.209Z,23.12
2022-07-29T20:26:19.745Z,23.08
2022-07-29T20:31:21.403Z,23.05
2022-07-29T20:36:23.037Z,23.01
2022-07-29T20:41:24.502Z,22.89
2022-07-29T20:46:26.004Z,22.84
2022-07-29T20:51:27.545Z,22.82
2022-07-29T20:56:29.552Z,22.85
2022-07-29T21:01:31.134Z,22.87
2022-07-29T21:06:32.623Z,22.89
2022-07-29T21:11:43.571Z,22.86
2022-07-29T21:16:46.375Z,22.85
2022-07-29T21:21:47.858Z,22.81
2022-07-29T21:27:10.918Z,22.77
2022-07-29T21:32:11.214Z,22.69
2022-07-29T21:37:12.704Z,22.60
2022-07-29T21:42:14.318Z,22.52
2022-07-29T21:47:15.923Z,22.44
2022-07-29T21:52:18.131Z,22.34
2022-07-29T21:57:19.710Z,22.23
2022-07-29T22:02:21.206Z,22.17
2022-07-29T22:07:22.677Z,22.07
2022-07-29T22:12:24.130Z,22.00
2022-07-29T22:17:25.829Z,21.92
2022-07-29T22:22:27.778Z,21.86
2022-07-29T22:27:29.265Z,21.77
2022-07-29T22:32:33.966Z,21.75
2022-07-29T22:37:35.793Z,21.61
2022-07-29T22:42:40.921Z,21.55
2022-07-29T22:47:46.703Z,21.56
2022-07-29T22:52:50.021Z,21.53
2022-07-29T22:57:51.476Z,21.49
2022-07-29T23:02:52.968Z,21.51
2022-07-29T23:07:54.472Z,21.43
2022-07-29T23:12:55.958Z,21.36
2022-07-29T23:17:58.744Z,21.38
2022-07-29T23:23:00.264Z,21.36
2022-07-29T23:28:01.981Z,21.29
2022-07-29T23:33:03.500Z,21.25
2022-07-29T23:38:05.245Z,21.17
2022-07-29T23:43:08.575Z,21.20
2022-07-29T23:48:10.554Z,21.11
2022-07-29T23:53:12.237Z,21.12
2022-07-29T23:58:13.789Z,21.13
